createdAt,value
2023-04-03T00:02:44.926Z,81.81
2023-04-03T00:06:48.283Z,81.30
2023-04-03T00:10:51.769Z,82.00
2023-04-03T00:14:54.658Z,81.82
2023-04-03T00:18:57.901Z,81.11
2023-04-03T00:23:03.591Z,80.88
2023-04-03T00:27:06.719Z,80.71
2023-04-03T00:31:09.693Z,81.87
2023-04-03T00:35:12.685Z,81.52
2023-04-03T00:39:15.654Z,81.50
2023-04-03T00:43:21.613Z,81.19
2023-04-03T00:47:25.629Z,81.36
2023-04-03T00:51:29.401Z,81.76
2023-04-03T00:55:32.784Z,81.73
2023-04-03T00:59:40.356Z,81.92
2023-04-03T01:03:43.971Z,82.02
2023-04-03T01:07:47.659Z,82.09
2023-04-03T01:11:50.553Z,82.63
2023-04-03T01:15:54.626Z,82.74
2023-04-03T01:20:37.701Z,82.84
2023-04-03T01:24:41.203Z,83.07
2023-04-03T01:28:44.185Z,83.07
2023-04-03T01:32:47.329Z,83.56
2023-04-03T01:36:51.918Z,83.43
2023-04-03T01:41:16.605Z,83.61
2023-04-03T01:45:19.694Z,83.89
2023-04-03T01:49:22.946Z,83.87
2023-04-03T01:53:26.296Z,84.60
2023-04-03T01:57:29.663Z,84.25
2023-04-03T02:01:32.921Z,84.51
2023-04-03T02:05:36.097Z,84.81
2023-04-03T02:09:38.945Z,85.12
2023-04-03T02:13:41.968Z,86.17
2023-04-03T02:17:45.459Z,86.29
2023-04-03T02:21:48.958Z,86.70
2023-04-03T02:25:51.818Z,87.33
2023-04-03T02:29:55.037Z,87.57
2023-04-03T02:33:57.979Z,88.38
2023-04-03T02:38:01.287Z,88.63
2023-04-03T02:42:04.498Z,89.20
2023-04-03T02:46:07.933Z,89.76
2023-04-03T02:50:11.373Z,90.00
2023-04-03T02:54:14.954Z,90.50
2023-04-03T02:58:18.281Z,90.97
2023-04-03T03:02:22.949Z,91.11
2023-04-03T03:06:26.854Z,91.57
2023-04-03T03:10:30.543Z,92.17
2023-04-03T03:14:33.514Z,92.41
2023-04-03T03:18:37.825Z,92.31
2023-04-03T03:22:40.856Z,92.87
2023-04-03T03:26:44.236Z,92.81
2023-04-03T03:30:47.733Z,93.09
2023-04-03T03:34:52.876Z,93.42
2023-04-03T03:38:56.533Z,93.62
2023-04-03T03:43:00.691Z,93.68
2023-04-03T03:47:04.228Z,94.01
2023-04-03T03:51:07.502Z,94.71
2023-04-03T03:55:10.603Z,94.65
2023-04-03T03:59:13.879Z,94.95
2023-04-03T04:03:17.599Z,94.93
2023-04-03T04:07:20.956Z,95.18
2023-04-03T04:11:24.441Z,95.04
2023-04-03T04:15:28.789Z,95.49
2023-04-03T04:19:32.162Z,95.25
2023-04-03T04:23:35.305Z,95.39
2023-04-03T04:27:38.746Z,95.51
2023-04-03T04:31:41.677Z,95.60
2023-04-03T04:35:44.922Z,95.72
2023-04-03T04:39:47.992Z,96.04
2023-04-03T04:43:51.910Z,96.34
2023-04-03T04:47:57.129Z,96.34
2023-04-03T04:52:00.291Z,96.09
2023-04-03T04:56:03.582Z,95.39
2023-04-03T05:00:07.128Z,91.83
2023-04-03T05:04:13.779Z,87.79
2023-04-03T05:08:18.754Z,84.27
2023-04-03T05:12:23.133Z,80.90
2023-04-03T05:16:26.641Z,77.95
2023-04-03T05:20:29.724Z,75.62
2023-04-03T05:24:32.770Z,74.79
2023-04-03T05:28:36.237Z,73.94
2023-04-03T05:32:39.918Z,72.16
2023-04-03T05:36:43.371Z,70.83
2023-04-03T05:40:46.863Z,70.31
2023-04-03T05:44:51.210Z,70.68
2023-04-03T05:48:54.617Z,69.76
2023-04-03T05:52:59.866Z,70.40
2023-04-03T05:57:02.960Z,70.87
2023-04-03T06:01:06.642Z,70.63
2023-04-03T06:05:12.526Z,70.95
2023-04-03T06:09:16.609Z,70.83
2023-04-03T06:13:19.551Z,71.37
2023-04-03T06:17:22.875Z,71.81
2023-04-03T06:21:26.165Z,71.33
2023-04-03T06:25:29.351Z,72.21
2023-04-03T06:29:32.868Z,72.34
2023-04-03T06:33:36.225Z,72.62
2023-04-03T06:37:39.507Z,72.83
2023-04-03T06:41:43.078Z,72.77
2023-04-03T06:45:46.321Z,73.02
2023-04-03T06:49:49.975Z,72.05
2023-04-03T06:53:54.807Z,72.58
2023-04-03T06:57:58.006Z,72.13
2023-04-03T07:02:01.666Z,72.43
2023-04-03T07:06:06.766Z,73.30
2023-04-03T07:10:11.060Z,71.54
2023-04-03T07:14:14.478Z,71.32
2023-04-03T07:18:20.805Z,71.06
2023-04-03T07:22:24.233Z,70.82
2023-04-03T07:26:27.236Z,70.28
2023-04-03T07:30:31.612Z,69.97
2023-04-03T07:34:35.597Z,69.62
2023-04-03T07:38:39.001Z,70.23
2023-04-03T07:42:43.041Z,71.02
2023-04-03T07:46:47.935Z,72.65
2023-04-03T07:50:51.627Z,70.55
2023-04-03T07:54:55.213Z,70.89
2023-04-03T07:58:58.948Z,73.28
2023-04-03T08:03:02.815Z,71.26
2023-04-03T08:07:06.663Z,68.44
2023-04-03T08:11:11.687Z,67.56
2023-04-03T08:15:15.362Z,66.28
2023-04-03T08:19:26.185Z,66.32
2023-04-03T08:23:30.498Z,64.28
2023-04-03T08:27:34.645Z,62.46
2023-04-03T08:31:38.189Z,62.16
2023-04-03T08:35:42.686Z,62.89
2023-04-03T08:39:46.379Z,61.64
2023-04-03T08:44:17.388Z,63.86
2023-04-03T08:48:34.376Z,63.97
2023-04-03T08:52:49.291Z,63.60
2023-04-03T08:56:52.805Z,62.82
2023-04-03T09:01:14.096Z,64.61
2023-04-03T09:05:33.770Z,63.90
2023-04-03T09:09:42.540Z,64.18
2023-04-03T09:14:12.328Z,64.83
2023-04-03T09:18:25.312Z,63.93
2023-04-03T09:22:41.803Z,63.82
2023-04-03T09:27:01.740Z,62.33
2023-04-03T09:31:17.871Z,61.60
2023-04-03T09:35:39.969Z,61.97
2023-04-03T09:39:54.542Z,59.87
2023-04-03T09:43:57.909Z,58.04
2023-04-03T09:48:16.756Z,56.15
2023-04-03T09:52:24.431Z,55.59
2023-04-03T09:56:32.688Z,59.46
2023-04-03T10:00:39.244Z,61.66
2023-04-03T10:04:48.790Z,60.30
2023-04-03T10:09:03.925Z,60.96
2023-04-03T10:13:07.402Z,57.64
2023-04-03T10:17:20.862Z,59.08
2023-04-03T10:21:52.208Z,57.50
2023-04-03T10:26:01.659Z,58.95
2023-04-03T10:30:21.985Z,58.16
2023-04-03T10:34:28.419Z,55.33
2023-04-03T10:38:47.158Z,58.22
2023-04-03T10:43:08.329Z,55.06
2023-04-03T10:47:11.449Z,53.73
2023-04-03T10:51:30.446Z,54.12
2023-04-03T10:55:48.626Z,53.63
2023-04-03T11:00:05.691Z,57.12
2023-04-03T11:04:11.871Z,57.63
2023-04-03T11:08:45.750Z,57.32
2023-04-03T11:13:07.977Z,53.48
2023-04-03T11:17:17.691Z,53.47
2023-04-03T11:21:27.829Z,55.86
2023-04-03T11:25:35.743Z,58.03
2023-04-03T11:29:42.041Z,56.68
2023-04-03T11:34:09.315Z,56.38
2023-04-03T11:38:23.137Z,55.66
2023-04-03T11:42:31.698Z,56.24
2023-04-03T11:46:58.448Z,55.64
2023-04-03T11:51:21.865Z,52.74
2023-04-03T11:55:28.120Z,53.30
2023-04-03T11:59:38.535Z,55.17
2023-04-03T12:03:42.131Z,54.62
2023-04-03T12:08:25.335Z,56.40
2023-04-03T12:12:38.912Z,55.62
2023-04-03T12:16:42.173Z,55.27
2023-04-03T12:21:04.390Z,56.86
2023-04-03T12:25:45.818Z,55.85
2023-04-03T12:29:57.092Z,54.02
2023-04-03T12:34:31.024Z,54.00
2023-04-03T12:38:35.471Z,55.62
2023-04-03T12:43:04.118Z,54.95
2023-04-03T12:47:34.153Z,54.06
2023-04-03T12:51:42.321Z,51.71
2023-04-03T12:55:45.522Z,51.49
2023-04-03T12:59:48.732Z,52.21
2023-04-03T13:03:55.322Z,52.26
2023-04-03T13:08:06.065Z,52.44
2023-04-03T13:12:15.523Z,50.28
2023-04-03T13:16:18.502Z,52.11
2023-04-03T13:20:24.247Z,54.95
2023-04-03T13:24:27.934Z,55.84
2023-04-03T13:28:33.148Z,56.33
2023-04-03T13:32:37.212Z,52.42
2023-04-03T13:36:45.595Z,53.06
2023-04-03T13:45:29.559Z,53.92
2023-04-03T13:49:43.017Z,54.48
2023-04-03T13:53:50.381Z,53.34
2023-04-03T13:58:19.889Z,53.19
2023-04-03T14:02:32.100Z,52.30
2023-04-03T14:06:35.459Z,52.87
2023-04-03T14:10:39.751Z,52.56
2023-04-03T14:14:43.685Z,53.40
2023-04-03T14:18:47.783Z,53.63
2023-04-03T14:22:52.259Z,52.22
2023-04-03T14:26:56.572Z,51.93
2023-04-03T14:30:59.655Z,53.09
2023-04-03T14:35:04.270Z,54.78
2023-04-03T14:39:09.777Z,55.06
2023-04-03T14:43:13.545Z,56.69
2023-04-03T14:47:30.439Z,55.84
2023-04-03T14:51:35.227Z,55.73
2023-04-03T14:55:38.085Z,53.61
2023-04-03T14:59:41.445Z,54.11
2023-04-03T15:03:44.403Z,51.57
2023-04-03T15:07:54.991Z,52.43
2023-04-03T15:11:57.898Z,53.18
2023-04-03T15:16:01.302Z,55.93
2023-04-03T15:20:12.553Z,56.14
2023-04-03T15:24:15.889Z,56.09
2023-04-03T15:28:33.206Z,57.00
2023-04-03T15:32:36.409Z,56.73
2023-04-03T15:36:40.602Z,56.94
2023-04-03T15:40:44.662Z,56.39
2023-04-03T15:44:47.555Z,56.47
2023-04-03T15:48:50.788Z,55.39
2023-04-03T15:52:58.939Z,57.24
2023-04-03T15:57:02.127Z,56.58
2023-04-03T16:01:06.503Z,57.02
2023-04-03T16:09:12.852Z,57.82
2023-04-03T16:13:16.401Z,58.08
2023-04-03T16:17:19.488Z,60.56
2023-04-03T16:21:23.525Z,61.49
2023-04-03T16:25:27.476Z,59.31
2023-04-03T16:29:30.822Z,59.76
2023-04-03T16:33:34.452Z,58.28
2023-04-03T16:37:42.168Z,58.52
2023-04-03T16:41:46.315Z,58.59
2023-04-03T16:45:49.088Z,59.62
2023-04-03T16:49:52.149Z,59.38
2023-04-03T16:53:54.940Z,59.89
2023-04-03T16:57:58.335Z,61.39
2023-04-03T17:02:01.292Z,62.59
2023-04-03T17:06:04.263Z,63.49
2023-04-03T17:10:07.990Z,63.92
2023-04-03T17:14:11.006Z,64.97
2023-04-03T17:18:14.229Z,64.67
2023-04-03T17:22:18.192Z,64.33
2023-04-03T17:26:22.294Z,65.21
2023-04-03T17:30:25.535Z,65.69
2023-04-03T17:34:28.828Z,65.91
2023-04-03T17:38:33.498Z,65.25
2023-04-03T17:42:36.443Z,63.93
2023-04-03T17:46:39.558Z,62.34
2023-04-03T17:50:42.598Z,62.87
2023-04-03T17:54:45.577Z,62.25
2023-04-03T17:58:49.401Z,61.62
2023-04-03T18:02:54.320Z,61.18
2023-04-03T18:06:57.437Z,62.21
2023-04-03T18:11:00.442Z,62.27
2023-04-03T18:15:05.169Z,63.20
2023-04-03T18:19:22.018Z,63.56
2023-04-03T18:23:28.845Z,62.39
2023-04-03T18:27:32.072Z,62.24
2023-04-03T18:31:36.491Z,61.12
2023-04-03T18:35:39.444Z,59.89
2023-04-03T18:39:42.491Z,60.43
2023-04-03T18:43:45.361Z,59.47
2023-04-03T18:47:48.352Z,58.20
2023-04-03T18:51:51.341Z,57.03
2023-04-03T18:55:55.006Z,58.16
2023-04-03T18:59:57.838Z,59.00
2023-04-03T19:04:01.165Z,59.81
2023-04-03T19:08:04.545Z,59.39
2023-04-03T19:12:07.541Z,59.46
2023-04-03T19:16:11.069Z,58.50
2023-04-03T19:20:14.669Z,60.64
2023-04-03T19:24:18.668Z,62.06
2023-04-03T19:28:21.695Z,62.40
2023-04-03T19:32:27.308Z,63.53
2023-04-03T19:36:31.389Z,63.49
2023-04-03T19:40:35.534Z,59.02
2023-04-03T19:44:38.842Z,60.16
2023-04-03T19:48:42.226Z,62.41
2023-04-03T19:52:45.116Z,63.96
2023-04-03T19:56:48.186Z,63.89
2023-04-03T20:00:51.939Z,60.24
2023-04-03T20:04:55.322Z,61.68
2023-04-03T20:08:59.293Z,62.15
2023-04-03T20:13:04.269Z,62.25
2023-04-03T20:17:07.330Z,62.93
2023-04-03T20:21:11.024Z,64.24
2023-04-03T20:25:17.502Z,65.28
2023-04-03T20:29:27.502Z,65.30
2023-04-03T20:33:30.593Z,65.12
2023-04-03T20:37:33.839Z,64.23
2023-04-03T20:41:37.679Z,64.50
2023-04-03T20:45:40.618Z,64.85
2023-04-03T20:49:43.765Z,65.19
2023-04-03T20:53:48.207Z,66.04
2023-04-03T20:57:54.234Z,66.05
2023-04-03T21:01:58.417Z,64.53
2023-04-03T21:06:01.084Z,64.94
2023-04-03T21:10:41.719Z,66.21
2023-04-03T21:15:23.057Z,66.26
2023-04-03T21:19:26.363Z,65.74
2023-04-03T21:23:30.710Z,64.46
2023-04-03T21:27:34.566Z,63.30
2023-04-03T21:31:48.643Z,62.01
2023-04-03T21:35:57.860Z,62.71
2023-04-03T21:40:01.164Z,62.77
2023-04-03T21:44:04.963Z,62.27
2023-04-03T21:48:10.248Z,61.65
2023-04-03T21:52:13.046Z,62.71
2023-04-03T21:56:15.815Z,62.98
2023-04-03T22:00:19.710Z,63.60
2023-04-03T22:04:22.822Z,63.76
2023-04-03T22:08:25.949Z,63.87
2023-04-03T22:12:29.546Z,63.79
2023-04-03T22:16:32.452Z,64.29
2023-04-03T22:20:35.683Z,64.19
2023-04-03T22:24:38.536Z,64.83
2023-04-03T22:28:44.485Z,64.45
2023-04-03T22:32:47.411Z,63.45
2023-04-03T22:36:50.831Z,61.85
2023-04-03T22:41:00.797Z,61.59
2023-04-03T22:45:04.941Z,61.35
2023-04-03T22:49:08.159Z,62.22
2023-04-03T22:53:11.270Z,62.79
2023-04-03T22:57:14.292Z,63.42
2023-04-03T23:01:19.483Z,64.88
2023-04-03T23:05:22.579Z,65.34
2023-04-03T23:09:25.551Z,66.17
2023-04-03T23:13:28.676Z,66.76
2023-04-03T23:17:32.557Z,67.01
2023-04-03T23:21:36.399Z,64.40
2023-04-03T23:25:39.474Z,65.34
2023-04-03T23:29:43.536Z,64.67
2023-04-03T23:33:46.528Z,64.56
2023-04-03T23:37:49.455Z,64.47
2023-04-03T23:41:52.505Z,65.49
2023-04-03T23:45:55.321Z,65.38
2023-04-03T23:49:58.553Z,63.93
2023-04-03T23:54:01.727Z,62.68
2023-04-03T23:58:04.710Z,63.26
